Time;durP1;ratioP1;P1;durP2;ratioP2;P2;SDS_P1;SDS_P2;PMS_P1;PMS_P2;Temp;Humidity;BMP_temperature;BMP_pressure;BME280_temperature;BME280_humidity;BME280_pressure;Samples;Min_cycle;Max_cycle;Signal;HPM_P1;HPM_P2
2022/05/31 02:07:18;;;;;;;10.70;9.20;;;;;;;6.28;75.14;99826.09;214827;1277;140311;-65
2022/05/31 02:12:24;;;;;;;10.00;8.40;;;;;;;6.28;75.40;99834.36;213659;1276;139764;-63
2022/05/31 02:17:28;;;;;;;12.90;8.70;;;;;;;6.29;75.06;99834.04;213654;1276;141339;-64
2022/05/31 02:22:33;;;;;;;9.00;8.20;;;;;;;6.23;74.65;99838.52;214254;1276;141379;-64
2022/05/31 02:27:38;;;;;;;11.90;8.50;;;;;;;6.13;75.01;99841.32;213650;1276;139260;-64
2022/05/31 02:32:43;;;;;;;10.00;8.60;;;;;;;6.12;75.16;99838.62;214229;1276;139456;-64
2022/05/31 02:37:48;;;;;;;10.40;8.70;;;;;;;6.09;74.82;99840.95;214130;1276;140953;-63
2022/05/31 02:42:52;;;;;;;9.60;8.50;;;;;;;6.00;74.77;99842.66;213827;1277;143722;-63
2022/05/31 02:47:58;;;;;;;9.90;9.00;;;;;;;5.95;74.92;99851.86;213543;1277;162137;-64
2022/05/31 02:53:02;;;;;;;10.30;8.90;;;;;;;5.99;75.27;99856.83;214419;1276;140423;-63
2022/05/31 02:58:07;;;;;;;9.10;8.00;;;;;;;6.05;75.38;99863.80;214459;1276;141062;-63
2022/05/31 03:03:12;;;;;;;11.00;9.00;;;;;;;6.17;75.55;99868.02;214966;1276;141366;-64
2022/05/31 03:08:17;;;;;;;10.90;8.30;;;;;;;6.13;74.95;99869.98;213602;1276;142048;-64
2022/05/31 03:13:26;;;;;;;10.00;9.00;;;;;;;6.04;74.84;99874.96;215149;1275;140257;-64
2022/05/31 03:18:40;;;;;;;9.00;7.50;;;;;;;5.97;74.80;99877.34;214795;1276;164841;-63
2022/05/31 03:23:53;;;;;;;10.40;9.30;;;;;;;6.04;75.18;99876.42;213755;1277;141214;-63
2022/05/31 03:35:39;;;;;;;12.40;9.30;;;;;;;6.65;75.90;99868.27;215865;1275;140776;-67
2022/05/31 03:40:58;;;;;;;8.90;8.30;;;;;;;6.83;75.55;99871.48;213478;1276;141669;-62
2022/05/31 03:46:03;;;;;;;15.10;11.40;;;;;;;7.26;75.16;99873.45;213812;1276;141518;-63
2022/05/31 03:51:10;;;;;;;14.80;9.90;;;;;;;7.41;75.45;99881.50;215179;1276;140839;-65
2022/05/31 03:56:15;;;;;;;12.10;8.70;;;;;;;7.54;75.24;99882.92;214486;1275;141855;-64
2022/05/31 04:01:20;;;;;;;10.70;9.10;;;;;;;7.81;75.65;99883.92;214247;1276;140523;-63
2022/05/31 04:06:24;;;;;;;12.20;10.70;;;;;;;8.03;75.65;99885.90;214972;1275;140357;-64
2022/05/31 04:11:30;;;;;;;13.70;10.90;;;;;;;8.29;75.56;99884.69;214593;1275;141388;-65
2022/05/31 04:16:35;;;;;;;11.80;9.40;;;;;;;8.75;75.25;99880.62;214847;1276;140723;-64
2022/05/31 04:21:41;;;;;;;10.00;9.00;;;;;;;10.18;73.85;99886.98;214011;1277;140303;-65
2022/05/31 04:26:47;;;;;;;9.00;8.10;;;;;;;11.95;71.85;99887.80;213586;1277;140202;-64
2022/05/31 04:31:52;;;;;;;9.60;6.70;;;;;;;12.43;71.46;99891.73;213694;1277;139725;-64
2022/05/31 04:36:57;;;;;;;7.50;6.80;;;;;;;15.04;67.82;99891.17;213615;1277;140539;-64
2022/05/31 04:42:02;;;;;;;8.30;7.40;;;;;;;16.11;67.39;99898.33;213458;1277;140195;-65
2022/05/31 04:47:06;;;;;;;9.20;7.20;;;;;;;16.29;65.90;99907.48;213731;1277;139399;-62
2022/05/31 04:52:12;;;;;;;7.60;6.90;;;;;;;16.74;64.86;99912.70;214376;1276;139594;-65
2022/05/31 04:57:19;;;;;;;8.20;7.40;;;;;;;16.31;64.75;99914.31;213978;1275;1125851;-63
2022/05/31 05:02:24;;;;;;;8.30;7.30;;;;;;;16.87;63.02;99914.23;214497;1277;141491;-64
2022/05/31 05:07:30;;;;;;;9.10;7.10;;;;;;;20.52;59.74;99909.85;213549;1277;139583;-64
2022/05/31 05:12:35;;;;;;;5.90;5.40;;;;;;;24.34;54.95;99906.36;214821;1277;139934;-63
2022/05/31 05:17:38;;;;;;;9.10;6.60;;;;;;;27.23;50.45;99913.37;215867;1276;140477;-63
2022/05/31 05:34:28;;;;;;;4.00;3.70;;;;;;;33.91;40.51;99929.64;215428;1277;140396;-64
2022/05/31 05:39:33;;;;;;;3.80;3.50;;;;;;;34.86;37.52;99934.13;215803;1276;139594;-65
2022/05/31 05:44:43;;;;;;;3.00;2.80;;;;;;;35.17;34.71;99935.67;215160;1276;139675;-63
2022/05/31 05:49:48;;;;;;;2.70;2.60;;;;;;;35.02;33.34;99934.23;214824;1276;139273;-65
2022/05/31 05:54:56;;;;;;;2.20;2.10;;;;;;;35.64;32.28;99935.34;214746;1276;139559;-64
2022/05/31 06:00:01;;;;;;;2.30;2.10;;;;;;;35.72;31.02;99938.73;214408;1276;139199;-63
2022/05/31 06:05:28;;;;;;;2.80;2.60;;;;;;;36.39;31.29;99937.40;214119;1277;140429;-63
2022/05/31 06:10:42;;;;;;;5.30;2.60;;;;;;;37.29;29.78;99934.21;213637;1277;139191;-65
2022/05/31 06:15:50;;;;;;;3.60;2.50;;;;;;;37.66;29.16;99937.62;213753;1277;139908;-64
2022/05/31 06:21:01;;;;;;;2.10;1.70;;;;;;;38.01;28.64;99942.49;213901;1277;140539;-63
2022/05/31 06:26:06;;;;;;;3.20;1.60;;;;;;;38.60;27.71;99945.09;213969;1276;230140;-64
2022/05/31 06:31:10;;;;;;;1.40;1.40;;;;;;;38.35;26.74;99949.48;214235;1277;139694;-64
2022/05/31 06:36:15;;;;;;;2.00;1.90;;;;;;;37.84;25.75;99946.86;215090;1277;139594;-63
2022/05/31 06:41:20;;;;;;;1.80;1.50;;;;;;;37.19;26.36;99948.27;214236;1276;139639;-64
2022/05/31 06:46:25;;;;;;;1.20;1.10;;;;;;;36.89;26.30;99952.26;213973;1276;139329;-64
2022/05/31 06:56:58;;;;;;;1.30;1.10;;;;;;;33.99;26.52;99949.19;214897;1277;139830;-64
2022/05/31 07:02:04;;;;;;;1.10;1.10;;;;;;;32.79;26.49;99945.53;215819;1277;139990;-65
2022/05/31 07:07:08;;;;;;;1.00;1.00;;;;;;;32.06;27.03;99953.08;214900;1276;139199;-65
2022/05/31 07:12:13;;;;;;;1.00;1.00;;;;;;;31.75;27.14;99952.23;213977;1277;139326;-67
2022/05/31 07:17:19;;;;;;;2.20;1.70;;;;;;;31.83;27.97;99945.60;215807;1276;139663;-64
2022/05/31 07:22:23;;;;;;;1.30;1.30;;;;;;;31.73;29.04;99944.36;215856;1276;139478;-64
2022/05/31 07:27:29;;;;;;;1.30;1.30;;;;;;;30.75;28.68;99950.41;214673;1277;139621;-63
2022/05/31 07:32:33;;;;;;;2.10;1.90;;;;;;;29.54;29.92;99949.23;214105;1276;140406;-63
2022/05/31 07:37:58;;;;;;;1.00;1.00;;;;;;;29.33;31.61;99948.11;214474;1277;139740;-63
2022/05/31 07:43:02;;;;;;;1.30;1.30;;;;;;;29.24;31.42;99942.48;214913;1277;139687;-63
2022/05/31 07:48:08;;;;;;;1.50;1.40;;;;;;;28.41;30.85;99943.27;214097;1276;139010;-63
2022/05/31 07:53:11;;;;;;;;;;;;;;;27.42;31.64;99946.75;214760;1276;139604;-63
2022/05/31 07:58:30;;;;;;;1.50;1.40;;;;;;;27.14;32.97;99938.16;214646;1277;125962;-61
2022/05/31 08:03:40;;;;;;;2.60;1.60;;;;;;;26.63;33.14;99935.90;213909;1277;139457;-63
2022/05/31 08:08:45;;;;;;;1.30;1.30;;;;;;;26.54;34.17;99936.45;214655;1277;139288;-64
2022/05/31 08:13:53;;;;;;;1.30;1.20;;;;;;;26.21;34.32;99941.15;213636;1276;150149;-64
2022/05/31 08:19:57;;;;;;;1.40;1.30;;;;;;;25.74;33.28;99940.88;213213;1281;139548;-64
2022/05/31 08:25:03;;;;;;;1.40;1.40;;;;;;;25.06;34.68;99944.66;213409;1281;139343;-64
2022/05/31 08:30:08;;;;;;;3.40;2.00;;;;;;;24.99;35.46;99949.61;213873;1280;139743;-63
2022/05/31 08:35:13;;;;;;;2.10;2.00;;;;;;;24.94;35.79;99946.56;213389;1280;139857;-64
2022/05/31 08:40:18;;;;;;;1.40;1.40;;;;;;;24.97;36.03;99945.03;212979;1281;139180;-63
2022/05/31 08:45:33;;;;;;;2.00;1.70;;;;;;;25.12;36.09;99942.12;213425;1281;139445;-63
2022/05/31 11:58:58;;;;;;;1.30;1.30;;;;;;;23.18;36.17;99851.18;215115;1276;140070;-64
2022/05/31 12:04:17;;;;;;;2.00;1.30;;;;;;;23.03;35.82;99848.08;214520;1276;139660;-64
2022/05/31 12:09:49;;;;;;;1.80;1.70;;;;;;;23.23;36.96;99845.55;215707;1276;140454;-65
2022/05/31 12:14:59;;;;;;;1.30;1.30;;;;;;;23.49;36.36;99852.75;215775;1276;139403;-64
2022/05/31 12:20:18;;;;;;;2.50;1.50;;;;;;;23.73;36.31;99844.46;215589;1276;140843;-64
2022/05/31 12:25:30;;;;;;;3.60;1.60;;;;;;;24.08;36.37;99840.36;214541;1276;140318;-64
2022/05/31 12:30:45;;;;;;;2.80;2.00;;;;;;;24.03;35.53;99842.39;215538;1276;139832;-64
2022/05/31 12:35:49;;;;;;;3.10;2.00;;;;;;;23.40;35.21;99840.33;214442;1277;139947;-64
2022/05/31 12:40:54;;;;;;;2.00;1.90;;;;;;;22.94;36.02;99839.89;215610;1276;140782;-63
2022/05/31 12:45:58;;;;;;;1.30;1.30;;;;;;;22.90;36.61;99830.70;213668;1276;141080;-63
2022/05/31 12:51:20;;;;;;;1.70;1.60;;;;;;;23.38;36.39;99818.63;213194;1276;140759;-65
2022/05/31 12:56:56;;;;;;;1.80;1.60;;;;;;;23.72;35.94;99812.05;213863;1276;142516;-66
2022/05/31 13:02:31;;;;;;;1.80;1.60;;;;;;;23.72;35.60;99808.89;213863;1276;140165;-66
2022/05/31 13:07:46;;;;;;;4.60;2.00;;;;;;;23.58;35.28;99803.94;213429;1277;139450;-66
2022/05/31 13:23:46;;;;;;;2.30;1.30;;;;;;;23.46;36.23;99809.05;213128;1276;140681;-65
2022/05/31 13:29:04;;;;;;;1.20;1.20;;;;;;;23.44;35.98;99800.98;213602;1277;140931;-65
2022/05/31 13:34:10;;;;;;;1.60;1.50;;;;;;;23.51;36.03;99793.66;213464;1276;141012;-64
2022/05/31 13:39:16;;;;;;;2.40;2.00;;;;;;;23.44;36.04;99789.23;212727;1275;140984;-65
2022/05/31 13:44:29;;;;;;;2.00;1.80;;;;;;;23.38;36.02;99784.83;213704;1275;140747;-66
2022/05/31 13:49:41;;;;;;;1.90;1.80;;;;;;;23.38;35.93;99775.87;213651;1277;139782;-65
2022/05/31 13:54:46;;;;;;;1.50;1.50;;;;;;;23.23;35.87;99772.71;214984;1276;139930;-65
2022/05/31 13:59:55;;;;;;;1.50;1.50;;;;;;;23.16;36.24;99768.48;214192;1277;140791;-68
2022/05/31 14:04:59;;;;;;;1.80;1.60;;;;;;;23.22;36.35;99766.57;214802;1276;140496;-65
2022/05/31 14:10:03;;;;;;;1.90;1.70;;;;;;;23.38;36.22;99759.09;215811;1276;141630;-66
2022/05/31 14:15:20;;;;;;;1.80;1.70;;;;;;;23.13;36.26;99756.92;215725;1276;140721;-65
2022/05/31 14:20:28;;;;;;;2.10;2.00;;;;;;;22.53;36.02;99761.14;214041;1276;140013;-64
2022/05/31 14:25:32;;;;;;;1.80;1.70;;;;;;;22.41;36.96;99761.25;213913;1276;141335;-63
2022/05/31 14:30:49;;;;;;;3.10;1.70;;;;;;;22.75;37.14;99753.21;213530;1277;140120;-65
2022/05/31 14:35:56;;;;;;;2.00;1.90;;;;;;;22.95;36.24;99746.45;214379;1275;141678;-65
2022/05/31 14:41:05;;;;;;;1.90;1.70;;;;;;;22.70;36.05;99745.05;214260;1276;142278;-64
2022/05/31 14:46:28;;;;;;;1.90;1.80;;;;;;;22.24;36.41;99747.69;214193;1276;140983;-64
2022/05/31 14:51:49;;;;;;;1.90;1.50;;;;;;;21.78;37.20;99746.00;213438;1276;141698;-64
2022/05/31 14:56:54;;;;;;;2.20;2.00;;;;;;;21.51;37.88;99750.98;213284;1276;141861;-65
2022/05/31 15:02:00;;;;;;;4.00;1.80;;;;;;;21.46;39.01;99752.13;212887;1277;143301;-61
2022/05/31 15:07:21;;;;;;;4.50;1.90;;;;;;;21.48;39.36;99746.11;213203;1276;140592;-65
2022/05/31 15:23:47;;;;;;;1.90;1.80;;;;;;;21.56;39.30;99746.91;213453;1277;140995;-65
2022/05/31 15:28:52;;;;;;;2.20;2.00;;;;;;;21.48;39.29;99741.39;214607;1276;140453;-63
2022/05/31 15:34:12;;;;;;;2.70;2.00;;;;;;;21.68;39.41;99734.20;213902;1277;141405;-65
2022/05/31 15:39:17;;;;;;;2.00;1.90;;;;;;;21.85;38.84;99731.23;215474;1276;140115;-65
2022/05/31 15:44:22;;;;;;;2.20;2.00;;;;;;;21.67;38.38;99729.40;214396;1277;139768;-64
2022/05/31 15:49:27;;;;;;;2.90;2.00;;;;;;;21.89;38.68;99720.83;214555;1276;141232;-64
2022/05/31 15:54:39;;;;;;;4.60;2.00;;;;;;;22.04;38.65;99719.52;215595;1276;139731;-64
2022/05/31 15:59:44;;;;;;;3.70;2.30;;;;;;;22.15;38.40;99706.11;215849;1277;141970;-64
2022/05/31 16:04:48;;;;;;;4.50;2.40;;;;;;;21.88;38.33;99702.88;215891;1276;141151;-63
2022/05/31 16:09:54;;;;;;;2.70;2.50;;;;;;;21.40;38.94;99696.48;215822;1276;139464;-64
2022/05/31 16:15:11;;;;;;;3.10;1.80;;;;;;;21.12;39.20;99694.74;215563;1276;140203;-64
2022/05/31 16:20:22;;;;;;;2.50;2.30;;;;;;;20.94;39.32;99689.79;215118;1277;161236;-63
2022/05/31 16:25:28;;;;;;;2.30;2.20;;;;;;;20.90;39.94;99683.90;213516;1277;153172;-64
2022/05/31 16:30:51;;;;;;;3.30;2.40;;;;;;;20.97;40.14;99681.76;214175;1276;140948;-65
2022/05/31 16:36:06;;;;;;;3.50;3.00;;;;;;;21.14;40.51;99678.30;214163;1277;141335;-63
2022/05/31 16:41:19;;;;;;;;;;;;;;;21.28;40.53;99667.14;214885;1276;142636;-62
2022/05/31 16:46:28;;;;;;;2.50;2.20;;;;;;;21.19;41.01;99660.98;215267;1276;127674;-62
2022/05/31 16:51:47;;;;;;;3.20;2.90;;;;;;;21.06;41.31;99652.91;214359;1276;141578;-62
2022/05/31 16:57:04;;;;;;;3.30;3.00;;;;;;;20.85;42.42;99653.77;213804;1276;665664;-64
2022/05/31 17:02:11;;;;;;;2.80;2.60;;;;;;;20.65;43.21;99652.86;213415;1277;140715;-63
2022/05/31 17:18:15;;;;;;;5.00;3.60;;;;;;;20.06;45.41;99632.06;214341;1276;140891;-64
2022/05/31 17:23:36;;;;;;;5.60;3.60;;;;;;;19.87;46.17;99633.17;213242;1277;139984;-64
2022/05/31 17:28:45;;;;;;;12.80;3.90;;;;;;;19.65;46.82;99641.31;213458;1276;140459;-65
2022/05/31 17:33:50;;;;;;;;;;;;;;;19.41;47.21;99645.35;214638;1277;141510;-64
2022/05/31 17:38:59;;;;;;;8.20;3.40;;;;;;;19.14;47.82;99648.31;215681;1277;126182;-64
2022/05/31 17:44:09;;;;;;;5.50;3.50;;;;;;;18.93;48.58;99646.94;214578;1276;141372;-65
2022/05/31 17:49:18;;;;;;;7.00;4.30;;;;;;;18.75;49.29;99650.70;215647;1277;140529;-65
2022/05/31 17:54:27;;;;;;;8.20;3.90;;;;;;;18.58;49.72;99649.85;215939;1276;139523;-65
2022/05/31 17:59:33;;;;;;;7.00;3.70;;;;;;;18.43;50.25;99648.64;215670;1274;139744;-65
2022/05/31 18:04:37;;;;;;;6.30;3.60;;;;;;;18.26;50.92;99645.63;215632;1277;139481;-64
2022/05/31 18:09:47;;;;;;;5.80;3.60;;;;;;;18.08;51.66;99641.39;215685;1277;142517;-65
2022/05/31 18:14:51;;;;;;;5.00;3.90;;;;;;;17.94;52.23;99643.22;215048;1277;141840;-62
2022/05/31 18:19:55;;;;;;;4.10;3.00;;;;;;;17.81;52.71;99647.36;214918;1276;140204;-65
2022/05/31 18:25:01;;;;;;;5.90;3.50;;;;;;;17.68;52.92;99647.65;214330;1276;139795;-64
2022/05/31 18:30:07;;;;;;;4.30;3.30;;;;;;;17.58;53.36;99646.05;214414;1277;139777;-65
2022/05/31 18:35:16;;;;;;;3.60;3.40;;;;;;;17.42;53.46;99646.40;213761;1277;141616;-64
2022/05/31 18:40:34;;;;;;;7.70;4.50;;;;;;;17.28;53.90;99643.81;214490;1276;139730;-67
2022/05/31 18:45:39;;;;;;;7.10;4.10;;;;;;;17.13;54.07;99645.73;213009;1277;139663;-66
2022/05/31 18:50:45;;;;;;;6.20;4.30;;;;;;;17.01;54.31;99643.20;212775;1277;140245;-65
2022/05/31 18:55:50;;;;;;;5.30;4.40;;;;;;;16.90;54.46;99638.46;214423;1276;140163;-64
2022/05/31 19:00:55;;;;;;;4.40;4.10;;;;;;;16.75;54.44;99641.46;213504;1277;141595;-67
2022/05/31 19:06:01;;;;;;;11.00;5.10;;;;;;;16.62;54.78;99634.94;213682;1277;140116;-65
2022/05/31 19:11:06;;;;;;;8.10;5.80;;;;;;;16.50;55.06;99632.27;213707;1277;139838;-65
2022/05/31 19:16:12;;;;;;;11.40;6.20;;;;;;;16.34;55.10;99630.48;213890;1276;140223;-65
2022/05/31 19:21:26;;;;;;;6.30;4.30;;;;;;;16.21;55.29;99624.70;213935;1277;139741;-65
2022/05/31 19:26:30;;;;;;;5.70;5.20;;;;;;;16.11;55.34;99624.74;214537;1276;140756;-66
2022/05/31 19:31:37;;;;;;;7.60;5.00;;;;;;;16.01;55.50;99628.95;212945;1277;141401;-65
2022/05/31 19:36:41;;;;;;;9.70;5.10;;;;;;;15.96;55.72;99627.13;214122;1277;139564;-65
2022/05/31 19:41:45;;;;;;;7.30;6.10;;;;;;;15.95;56.19;99626.23;214638;1277;140076;-65
2022/05/31 19:46:48;;;;;;;6.70;5.80;;;;;;;15.94;56.28;99625.20;213515;1277;141595;-65
2022/05/31 19:51:52;;;;;;;5.70;5.20;;;;;;;15.91;56.29;99625.60;214646;1276;139489;-66
2022/05/31 19:56:58;;;;;;;5.00;4.60;;;;;;;15.86;56.30;99623.25;215599;1277;140466;-66
2022/05/31 20:02:04;;;;;;;6.50;5.90;;;;;;;15.77;56.42;99622.66;215706;1275;139466;-66
2022/05/31 20:07:16;;;;;;;4.90;4.40;;;;;;;15.70;56.42;99613.22;215026;1276;140102;-67
2022/05/31 20:12:25;;;;;;;3.90;3.50;;;;;;;15.65;56.14;99605.80;215809;1277;140976;-65
2022/05/31 20:17:31;;;;;;;5.00;4.50;;;;;;;15.64;55.97;99608.05;214395;1277;141063;-64
2022/05/31 20:22:48;;;;;;;3.90;3.60;;;;;;;15.62;55.48;99605.96;214955;1277;236397;-66
2022/05/31 20:27:53;;;;;;;7.30;4.40;;;;;;;15.63;55.29;99614.45;214786;1276;140115;-65
2022/05/31 20:32:58;;;;;;;4.30;3.90;;;;;;;15.65;54.93;99617.46;213551;1276;139643;-64
2022/05/31 20:38:05;;;;;;;5.70;4.10;;;;;;;15.70;54.63;99621.60;214971;1276;140181;-63
2022/05/31 20:43:11;;;;;;;6.10;3.50;;;;;;;15.78;54.53;99616.33;215116;1277;139218;-65
2022/05/31 20:48:18;;;;;;;6.50;4.30;;;;;;;15.83;54.33;99605.90;213771;1277;139409;-65
2022/05/31 20:53:26;;;;;;;8.20;3.80;;;;;;;15.86;54.23;99609.71;213232;1277;141946;-65
2022/05/31 20:58:32;;;;;;;4.60;4.20;;;;;;;15.90;54.12;99617.76;214078;1276;141610;-65
2022/05/31 21:03:38;;;;;;;3.90;3.60;;;;;;;15.90;54.20;99615.66;213019;1277;139999;-66
2022/05/31 21:08:45;;;;;;;4.10;3.70;;;;;;;15.86;54.24;99620.45;213342;1277;140306;-63
2022/05/31 21:13:50;;;;;;;3.90;3.60;;;;;;;15.82;54.46;99617.66;214373;1276;140951;-66
2022/05/31 21:18:55;;;;;;;4.90;3.10;;;;;;;15.79;54.55;99609.98;213838;1277;252476;-64
2022/05/31 21:24:04;;;;;;;7.90;4.40;;;;;;;15.77;54.81;99604.45;212924;1276;140235;-64
2022/05/31 21:29:19;;;;;;;5.00;3.80;;;;;;;15.75;55.17;99587.95;213709;1277;139555;-64
2022/05/31 21:34:22;;;;;;;4.50;4.10;;;;;;;15.73;55.27;99589.88;214150;1277;139794;-64
2022/05/31 21:44:50;;;;;;;4.60;4.20;;;;;;;15.68;55.82;99575.39;214453;1277;139967;-66
2022/05/31 21:49:54;;;;;;;4.60;4.10;;;;;;;15.65;55.89;99568.94;215742;1276;140799;-66
2022/05/31 21:55:01;;;;;;;4.60;4.30;;;;;;;15.62;56.19;99549.98;214539;1276;139557;-65
2022/05/31 22:00:21;;;;;;;5.10;4.70;;;;;;;15.63;56.47;99528.86;215896;1276;140873;-65
2022/05/31 22:05:24;;;;;;;4.60;4.10;;;;;;;15.65;56.69;99523.69;215771;1276;140555;-65
2022/05/31 22:10:29;;;;;;;3.40;3.20;;;;;;;15.66;56.73;99510.36;215876;1275;140813;-65
2022/05/31 22:15:37;;;;;;;3.80;3.60;;;;;;;15.66;56.94;99511.48;215474;1276;142133;-65
2022/05/31 22:20:41;;;;;;;4.90;4.50;;;;;;;15.66;56.97;99518.31;214983;1276;140881;-65
2022/05/31 22:25:46;;;;;;;4.70;4.10;;;;;;;15.66;57.12;99515.63;213872;1277;140169;-62
2022/05/31 22:30:50;;;;;;;4.70;4.30;;;;;;;15.64;57.22;99509.39;214160;1277;140316;-66
2022/05/31 22:35:57;;;;;;;4.30;3.90;;;;;;;15.59;57.53;99497.70;214923;1276;139525;-68
2022/05/31 22:41:02;;;;;;;5.30;4.40;;;;;;;15.54;57.75;99489.48;214798;1276;140125;-65
2022/05/31 22:46:10;;;;;;;3.90;3.50;;;;;;;15.48;57.99;99484.55;213705;1277;140330;-67
2022/05/31 22:51:14;;;;;;;4.00;3.60;;;;;;;15.43;58.20;99484.50;215444;1276;139883;-65
2022/05/31 22:56:20;;;;;;;4.10;3.70;;;;;;;15.40;58.35;99496.59;213738;1276;140406;-65
2022/05/31 23:01:25;;;;;;;4.10;3.80;;;;;;;15.38;58.61;99506.04;213602;1276;141983;-66
2022/05/31 23:06:35;;;;;;;5.10;3.40;;;;;;;15.37;58.66;99504.05;214033;1277;140221;-65
2022/05/31 23:11:41;;;;;;;4.50;4.10;;;;;;;15.38;58.91;99502.29;214118;1276;143534;-65
2022/05/31 23:16:45;;;;;;;3.30;3.00;;;;;;;15.37;58.98;99501.58;214161;1276;140650;-65
2022/05/31 23:23:46;;;;;;;4.60;4.20;;;;;;;15.35;59.64;99503.73;213932;1276;139738;-65
2022/05/31 23:27:18;;;;;;;10.30;4.70;;;;;;;15.26;60.47;99507.59;213220;1277;141929;-65
2022/05/31 23:32:24;;;;;;;4.60;4.20;;;;;;;15.27;61.14;99501.73;213626;1277;141858;-64
2022/05/31 23:37:28;;;;;;;4.70;4.30;;;;;;;15.29;61.70;99493.17;214189;1277;143080;-65
2022/05/31 23:42:33;;;;;;;4.30;4.00;;;;;;;15.29;62.21;99483.55;214024;1276;140978;-64
2022/05/31 23:47:37;;;;;;;5.30;4.80;;;;;;;15.22;62.80;99470.96;215834;1276;139828;-65
2022/05/31 23:52:42;;;;;;;5.20;4.70;;;;;;;15.19;63.36;99466.40;215964;1276;141159;-66
2022/05/31 23:57:47;;;;;;;5.50;4.80;;;;;;;15.17;63.84;99479.19;214975;1277;141819;-65
